LGAVLGKF

Guest
Details From LGAV - Athens Intl Airport Elefterios Venizel
To LGKF - Kefallinia
Flight Number -
Tags decoded
Created
Modified
Stats Distance 164 nm / 303 km
Max Altitude 0 ft / 0 m
Waypoints 4
Social Downloads 2
Likes 0
Share VATSIM

Download

Looking for another format? Having issues loading an existing format? Contact us
Advertisement - Login to hide

Notes

Requested: LGAV RILIN UN604 ARA LGKF Unmatched points: UN604

Route

LGAV RILIN ARA LGKF

ID Type Via Altitude (ft/m) Position (lat/lon) Dist (leg/tot) Name
O LGAV APT - 0 / 0 37.93636 / 23.94447 - / 0 nm Athens Intl Airport Elefterios Venizel
RILIN FIX - 0 / 0 37.96500 / 22.66667 60 / 60 nm
ARA VOR - 0 / 0 38.10972 / 21.42528 59 / 119 nm ARAXOS VOR-DME
O LGKF APT - 0 / 0 38.12007 / 20.50048 43 / 163 nm Kefallinia

Altitude Profile

Advertisement - Login to hide

Weather


0- 5 10 15 20 25 30 35+ Temperature / °C

Clouds and Precipitation
Forecast for 2018-12-17 12:00 UTC. Updated an hour ago

Ground ~20,000 ft ~40,000 ft Winds

LGAV

Details ICAO LGAV (ATH)
Name Athens Eleftherios Venizelos
Region Greece
Timezone Europe/Athens (UTC+2.0)
Stats Elevation 308 ft / 94 m (AMSL)
Location 37.936700° 23.944500°
Runways 2
Magnetic Variation 4.582° E

METAR

LGAV 171020Z 00000KT 9999 FEW030 SCT070 12/06 Q1016 NOSIG

Decode

TAF

TAF TAF LGAV 170500Z 1706/1806 VRB05KT 9999 SCT030 BECMG 1721/1723 16015KT PROB40 TEMPO 1720/1806 5000 RA SCT020 BKN030 PROB30 TEMPO 1722/1806 3000 TSRA SCT010 FEW018CB BKN030 BECMG 1801/1803 09020KT

Decode

Departure Runways

ID Width Length Bearing (true/mag) Surface Threshold Overrun Markings Lighting
03L 148 ft / 45 m 12,479 ft / 3,804 m 36.85° / 32.27° ASPHALT 984 ft / 300 m 397 ft / 121 m PREC-APP CENTERLINE EDGE THRESHOLD ALSF-II TDZ
03R 148 ft / 45 m 13,136 ft / 4,004 m 36.89° / 32.31° ASPHALT 984 ft / 300 m 387 ft / 118 m PREC-APP CENTERLINE EDGE THRESHOLD ALSF-II TDZ
21L 148 ft / 45 m 13,136 ft / 4,004 m 216.91° / 212.32° ASPHALT 984 ft / 300 m 400 ft / 122 m PREC-APP CENTERLINE EDGE THRESHOLD ALSF-II TDZ
21R 148 ft / 45 m 12,479 ft / 3,804 m 216.87° / 212.28° ASPHALT 984 ft / 300 m 394 ft / 120 m PREC-APP CENTERLINE EDGE THRESHOLD ALSF-II TDZ

LGKF

Details ICAO LGKF (EFL)
Name Kefallinia
Region Greece
Timezone Europe/Athens (UTC+2.0)
Stats Elevation 59 ft / 18 m (AMSL)
Location 38.120200° 20.500400°
Runways 1
Magnetic Variation 4.150° E

METAR

LGKF 170950Z 00000KT 9999 SCT016 SCT070 16/08 Q1018

Decode

TAF

Not found

Destination Runways

ID Width Length Bearing (true/mag) Surface Threshold Overrun Markings Lighting
14 148 ft / 45 m 8,039 ft / 2,450 m 146.44° / 142.28° CONCRETE 89 ft / 27 m 0 ft / 0 m PREC-APP CENTERLINE EDGE THRESHOLD MALSF
32 148 ft / 45 m 8,039 ft / 2,450 m 326.44° / 322.29° CONCRETE 853 ft / 260 m 0 ft / 0 m PREC-APP CENTERLINE EDGE THRESHOLD MALSF

Popular Alternatives